createdAt,value
2022-09-08T00:03:38.562Z,16.58
2022-09-08T00:08:41.104Z,16.63
2022-09-08T00:13:44.401Z,15.90
2022-09-08T00:18:46.474Z,15.82
2022-09-08T00:23:48.557Z,16.85
2022-09-08T00:28:50.556Z,16.38
2022-09-08T00:33:52.326Z,15.73
2022-09-08T00:38:54.724Z,16.35
2022-09-08T00:44:02.149Z,19.48
2022-09-08T00:49:21.928Z,16.35
2022-09-08T00:54:23.827Z,16.92
2022-09-08T00:59:26.427Z,15.80
2022-09-08T01:04:28.013Z,15.95
2022-09-08T01:10:21.829Z,15.35
2022-09-08T01:15:27.410Z,15.88
2022-09-08T01:20:38.227Z,15.13
2022-09-08T01:25:58.258Z,14.30
2022-09-08T01:31:03.205Z,13.95
2022-09-08T01:36:13.410Z,13.35
2022-09-08T01:41:15.178Z,14.60
2022-09-08T01:46:16.861Z,16.20
2022-09-08T01:51:18.493Z,14.00
2022-09-08T01:56:20.515Z,13.88
2022-09-08T02:01:22.113Z,14.07
2022-09-08T02:06:24.969Z,14.23
2022-09-08T02:11:27.079Z,12.15
2022-09-08T02:16:29.277Z,13.23
2022-09-08T02:21:30.840Z,13.70
2022-09-08T02:26:32.471Z,13.52
2022-09-08T02:31:34.083Z,12.73
2022-09-08T02:36:35.722Z,12.85
2022-09-08T02:41:37.445Z,12.75
2022-09-08T02:46:40.222Z,12.00
2022-09-08T02:51:41.892Z,12.73
2022-09-08T02:56:43.472Z,12.77
2022-09-08T03:01:45.121Z,12.27
2022-09-08T03:06:46.794Z,11.95
2022-09-08T03:11:48.538Z,11.60
2022-09-08T03:16:50.250Z,11.77
2022-09-08T03:21:51.810Z,12.25
2022-09-08T03:26:53.364Z,11.35
2022-09-08T03:31:54.951Z,11.68
2022-09-08T03:36:56.612Z,12.13
2022-09-08T03:41:58.161Z,11.88
2022-09-08T03:47:00.242Z,12.20
2022-09-08T03:52:02.314Z,14.57
2022-09-08T03:57:04.062Z,13.63
2022-09-08T04:02:05.652Z,14.15
2022-09-08T04:07:08.668Z,15.02
2022-09-08T04:12:11.022Z,16.67
2022-09-08T04:17:12.605Z,17.55
2022-09-08T04:22:14.269Z,17.23
2022-09-08T04:27:17.260Z,15.43
2022-09-08T04:32:20.008Z,9.63
2022-09-08T04:37:21.849Z,10.10
2022-09-08T04:42:24.445Z,9.70
2022-09-08T04:47:26.201Z,9.77
2022-09-08T04:52:31.024Z,9.38
2022-09-08T04:57:33.117Z,7.70
2022-09-08T05:02:34.673Z,8.88
2022-09-08T05:07:36.184Z,8.52
2022-09-08T05:12:38.168Z,7.78
2022-09-08T05:17:39.835Z,7.95
2022-09-08T05:22:44.964Z,8.55
2022-09-08T05:27:49.100Z,7.45
2022-09-08T05:32:50.865Z,6.95
2022-09-08T05:37:52.437Z,7.05
2022-09-08T05:42:53.995Z,7.68
2022-09-08T05:47:55.611Z,8.18
2022-09-08T05:52:57.235Z,8.02
2022-09-08T05:58:21.680Z,7.22
2022-09-08T06:03:20.656Z,8.90
2022-09-08T06:08:23.859Z,8.57
2022-09-08T06:13:25.744Z,8.80
2022-09-08T06:18:27.300Z,7.50
2022-09-08T06:23:28.889Z,11.18
2022-09-08T06:28:41.062Z,9.70
2022-09-08T06:33:43.980Z,9.60
2022-09-08T06:38:50.163Z,9.40
2022-09-08T06:43:57.212Z,10.82
2022-09-08T06:48:59.982Z,12.43
2022-09-08T06:54:10.633Z,13.70
2022-09-08T06:59:33.337Z,13.50
2022-09-08T07:04:55.121Z,15.07
2022-09-08T07:10:10.908Z,13.25
2022-09-08T07:15:43.895Z,17.98
2022-09-08T07:20:45.587Z,27.70
2022-09-08T07:26:01.041Z,16.10
2022-09-08T07:31:05.856Z,11.25
2022-09-08T07:36:32.401Z,6.10
2022-09-08T07:41:43.835Z,5.70
2022-09-08T07:47:13.462Z,8.32
2022-09-08T07:52:46.025Z,8.52
2022-09-08T07:58:04.281Z,6.82
2022-09-08T08:03:45.466Z,6.50
2022-09-08T08:09:06.072Z,7.60
2022-09-08T08:14:17.087Z,7.25
2022-09-08T08:19:30.969Z,7.72
2022-09-08T08:24:54.670Z,8.52
2022-09-08T08:30:20.368Z,7.97
2022-09-08T08:35:35.924Z,7.43
2022-09-08T08:40:59.178Z,6.85
2022-09-08T08:46:16.129Z,7.20
2022-09-08T08:51:36.871Z,6.90
2022-09-08T08:56:43.541Z,9.07
2022-09-08T09:01:58.120Z,7.65
2022-09-08T09:07:27.384Z,7.85
2022-09-08T09:12:56.807Z,7.25
2022-09-08T09:18:23.378Z,6.60
2022-09-08T09:24:00.370Z,5.75
2022-09-08T09:29:22.774Z,5.32
2022-09-08T09:34:58.103Z,6.18
2022-09-08T09:40:12.925Z,5.75
2022-09-08T09:45:29.896Z,4.78
2022-09-08T09:51:01.787Z,4.80
2022-09-08T09:56:31.190Z,4.38
2022-09-08T10:01:47.962Z,5.35
2022-09-08T10:07:14.405Z,5.50
2022-09-08T10:12:32.022Z,5.00
2022-09-08T10:17:51.901Z,5.18
2022-09-08T10:23:19.440Z,4.85
2022-09-08T10:28:27.080Z,4.68
2022-09-08T10:34:14.485Z,4.93
2022-09-08T10:39:42.528Z,4.68
2022-09-08T10:44:58.570Z,4.97
2022-09-08T10:50:19.282Z,4.63
2022-09-08T10:55:42.766Z,4.60
2022-09-08T11:01:09.334Z,4.70
2022-09-08T11:06:28.195Z,4.60
2022-09-08T11:12:06.514Z,4.95
2022-09-08T11:17:25.651Z,4.60
2022-09-08T11:22:36.042Z,4.47
2022-09-08T11:27:45.840Z,3.70
2022-09-08T11:32:56.540Z,3.95
2022-09-08T11:38:19.848Z,4.10
2022-09-08T11:43:43.124Z,4.13
2022-09-08T11:54:44.309Z,3.60
2022-09-08T12:00:14.503Z,3.45
2022-09-08T12:11:06.208Z,3.25
2022-09-08T12:16:34.054Z,3.53
2022-09-08T12:21:55.822Z,3.28
2022-09-08T12:27:19.261Z,2.95
2022-09-08T12:32:42.843Z,2.80
2022-09-08T12:38:13.549Z,2.85
2022-09-08T12:43:22.014Z,3.00
2022-09-08T12:48:46.896Z,2.63
2022-09-08T12:54:12.617Z,3.13
2022-09-08T12:59:43.470Z,3.40
2022-09-08T13:05:07.095Z,3.20
2022-09-08T13:10:11.622Z,3.95
2022-09-08T13:15:27.328Z,4.28
2022-09-08T13:20:42.321Z,4.10
2022-09-08T13:25:53.358Z,5.55
2022-09-08T13:31:35.583Z,5.93
2022-09-08T13:36:59.245Z,7.10
2022-09-08T13:42:22.667Z,8.65
2022-09-08T13:48:03.147Z,9.10
2022-09-08T13:53:18.605Z,8.77
2022-09-08T13:58:33.558Z,9.05
2022-09-08T14:04:18.806Z,8.68
2022-09-08T14:09:23.563Z,8.65
2022-09-08T14:14:30.943Z,9.02
2022-09-08T14:19:50.902Z,8.38
2022-09-08T14:25:12.459Z,7.85
2022-09-08T14:30:22.871Z,7.65
2022-09-08T14:35:47.875Z,7.43
2022-09-08T14:40:56.470Z,6.90
2022-09-08T14:46:28.691Z,6.90
2022-09-08T14:51:34.338Z,7.22
2022-09-08T14:56:44.924Z,6.80
2022-09-08T15:01:50.342Z,7.10
2022-09-08T15:06:56.443Z,7.07
2022-09-08T15:12:10.438Z,7.35
2022-09-08T15:17:12.000Z,7.07
2022-09-08T15:22:31.392Z,7.32
2022-09-08T15:27:37.180Z,7.25
2022-09-08T15:33:01.061Z,7.18
2022-09-08T15:38:17.631Z,7.40
2022-09-08T15:43:54.841Z,8.45
2022-09-08T15:49:08.544Z,9.02
2022-09-08T15:54:25.919Z,8.48
2022-09-08T15:59:52.261Z,8.77
2022-09-08T16:05:12.723Z,8.35
2022-09-08T16:10:15.503Z,8.80
2022-09-08T16:15:49.005Z,8.60
2022-09-08T16:21:19.925Z,8.00
2022-09-08T16:26:46.084Z,8.57
2022-09-08T16:31:55.305Z,8.23
2022-09-08T16:37:22.155Z,7.78
2022-09-08T16:42:44.228Z,8.20
2022-09-08T16:47:54.917Z,8.40
2022-09-08T16:53:16.128Z,8.25
2022-09-08T16:58:29.337Z,8.55
2022-09-08T17:04:00.225Z,8.70
2022-09-08T17:09:39.704Z,8.93
2022-09-08T17:14:41.766Z,8.50
2022-09-08T17:19:49.677Z,8.02
2022-09-08T17:25:10.311Z,8.23
2022-09-08T17:30:18.255Z,7.78
2022-09-08T17:35:28.689Z,6.78
2022-09-08T17:40:39.469Z,6.60
2022-09-08T17:45:46.854Z,6.53
2022-09-08T17:51:04.090Z,6.63
2022-09-08T17:56:36.129Z,6.15
2022-09-08T18:02:08.272Z,5.80
2022-09-08T18:07:22.470Z,6.43
2022-09-08T18:12:28.744Z,6.80
2022-09-08T18:17:37.427Z,6.68
2022-09-08T18:22:57.752Z,6.00
2022-09-08T18:28:42.064Z,6.25
2022-09-08T18:34:28.501Z,7.40
2022-09-08T18:39:33.742Z,6.80
2022-09-08T18:45:00.182Z,5.63
2022-09-08T18:50:39.087Z,5.40
2022-09-08T18:55:48.083Z,5.20
2022-09-08T19:01:09.047Z,5.65
2022-09-08T19:06:38.849Z,5.47
2022-09-08T19:11:56.077Z,4.80
2022-09-08T19:17:23.927Z,5.47
2022-09-08T19:22:29.225Z,6.50
2022-09-08T19:27:55.848Z,5.80
2022-09-08T19:33:43.518Z,5.82
2022-09-08T19:38:59.133Z,5.72
2022-09-08T19:49:52.526Z,7.75
2022-09-08T19:55:01.597Z,6.47
2022-09-08T20:00:36.004Z,6.70
2022-09-08T20:05:50.665Z,6.47
2022-09-08T20:11:05.074Z,6.40
2022-09-08T20:16:20.989Z,7.00
2022-09-08T20:21:23.166Z,7.05
2022-09-08T20:26:31.113Z,6.40
2022-09-08T20:31:50.628Z,6.43
2022-09-08T20:37:19.803Z,6.20
2022-09-08T20:42:36.873Z,6.88
2022-09-08T20:48:09.776Z,6.70
2022-09-08T20:53:21.892Z,6.47
2022-09-08T20:58:27.730Z,6.28
2022-09-08T21:03:36.589Z,7.18
2022-09-08T21:08:38.746Z,7.25
2022-09-08T21:13:53.266Z,8.02
2022-09-08T21:18:55.415Z,6.95
2022-09-08T21:24:26.455Z,6.88
2022-09-08T21:29:40.278Z,7.20
2022-09-08T21:34:53.170Z,7.18
2022-09-08T21:40:04.565Z,7.80
2022-09-08T21:45:07.867Z,6.60
2022-09-08T21:50:31.101Z,8.10
2022-09-08T21:55:40.778Z,7.30
2022-09-08T22:01:02.265Z,7.15
2022-09-08T22:06:09.769Z,6.82
2022-09-08T22:11:11.748Z,6.78
2022-09-08T22:16:33.571Z,6.60
2022-09-08T22:21:52.642Z,6.88
2022-09-08T22:27:15.407Z,6.90
2022-09-08T22:32:38.677Z,6.97
2022-09-08T22:38:09.432Z,6.30
2022-09-08T22:43:24.562Z,6.70
2022-09-08T22:48:51.246Z,6.60
2022-09-08T22:53:59.306Z,5.93
2022-09-08T22:59:26.566Z,5.63
2022-09-08T23:04:36.306Z,5.93
2022-09-08T23:09:37.833Z,5.88
2022-09-08T23:15:09.656Z,6.20
2022-09-08T23:20:31.624Z,5.38
2022-09-08T23:25:44.328Z,5.55
2022-09-08T23:30:59.273Z,6.10
2022-09-08T23:36:24.281Z,6.90
2022-09-08T23:41:28.510Z,6.40
2022-09-08T23:46:33.827Z,5.60
2022-09-08T23:51:43.616Z,5.38
2022-09-08T23:56:50.788Z,5.15
